Time;durP1;ratioP1;P1;durP2;ratioP2;P2;SDS_P1;SDS_P2;PMS_P1;PMS_P2;Temp;Humidity;BMP_temperature;BMP_pressure;BME280_temperature;BME280_humidity;BME280_pressure;Samples;Min_cycle;Max_cycle;Signal;HPM_P1;HPM_P2
2021/05/09 00:01:07;;;;;;;9.03;5.83;;;;;;;;;;5066672;28;20274;-75
2021/05/09 00:03:34;;;;;;;7.07;5.77;;;;;;;;;;5071225;28;20205;-74
2021/05/09 00:06:01;;;;;;;7.13;6.13;;;;;;;;;;5054053;28;20200;-74
2021/05/09 00:08:27;;;;;;;10.17;5.90;;;;;;;;;;5054692;28;20682;-74
2021/05/09 00:10:54;;;;;;;9.50;6.07;;;;;;;;;;5089925;28;20307;-74
2021/05/09 00:13:22;;;;;;;9.43;6.33;;;;;;;;;;5072329;28;20214;-75
2021/05/09 00:15:51;;;;;;;7.77;6.30;;;;;;;;;;5071523;28;20309;-75
2021/05/09 00:18:18;;;;;;;8.00;6.23;;;;;;;;;;5071993;28;20632;-75
2021/05/09 00:20:45;;;;;;;7.10;6.13;;;;;;;;;;5052198;28;20282;-75
2021/05/09 00:23:13;;;;;;;9.63;6.20;;;;;;;;;;5060349;28;20203;-75
2021/05/09 00:25:40;;;;;;;7.07;5.63;;;;;;;;;;5071920;28;20233;-74
2021/05/09 00:28:08;;;;;;;6.93;5.87;;;;;;;;;;5072275;28;20226;-75
2021/05/09 00:30:37;;;;;;;8.23;6.37;;;;;;;;;;5079969;28;20212;-75
2021/05/09 00:33:05;;;;;;;10.57;6.27;;;;;;;;;;5091253;28;20211;-75
2021/05/09 00:35:32;;;;;;;7.63;6.27;;;;;;;;;;5068996;28;20729;-75
2021/05/09 00:37:58;;;;;;;8.17;6.17;;;;;;;;;;5071066;28;20229;-74
2021/05/09 00:40:25;;;;;;;8.83;6.50;;;;;;;;;;5064394;28;20219;-74
2021/05/09 00:42:54;;;;;;;8.33;5.90;;;;;;;;;;5051888;28;20610;-75
2021/05/09 00:45:22;;;;;;;6.83;5.70;;;;;;;;;;5051876;28;20215;-74
2021/05/09 00:47:50;;;;;;;9.10;6.30;;;;;;;;;;5083167;28;20206;-75
2021/05/09 00:50:18;;;;;;;9.27;6.67;;;;;;;;;;5068036;28;20242;-74
2021/05/09 00:52:46;;;;;;;7.13;6.20;;;;;;;;;;5067484;28;20241;-74
2021/05/09 00:55:13;;;;;;;9.67;6.53;;;;;;;;;;5051604;28;20709;-74
2021/05/09 00:57:41;;;;;;;9.67;6.70;;;;;;;;;;5051918;28;20265;-74
2021/05/09 01:00:09;;;;;;;8.43;6.27;;;;;;;;;;5051372;28;20280;-74
2021/05/09 01:02:36;;;;;;;7.93;6.17;;;;;;;;;;5069562;28;20624;-75
2021/05/09 01:05:05;;;;;;;8.13;6.07;;;;;;;;;;5060644;28;20205;-74
2021/05/09 01:07:32;;;;;;;9.80;5.87;;;;;;;;;;5051422;28;20235;-74
2021/05/09 01:10:00;;;;;;;8.57;6.03;;;;;;;;;;5051473;28;20215;-74
2021/05/09 01:12:26;;;;;;;6.70;6.00;;;;;;;;;;5062859;28;20210;-74
2021/05/09 01:14:53;;;;;;;7.70;5.93;;;;;;;;;;5060866;28;20316;-74
2021/05/09 01:17:20;;;;;;;9.00;6.03;;;;;;;;;;5072158;28;20694;-74
2021/05/09 01:19:46;;;;;;;8.53;6.03;;;;;;;;;;5068990;28;20611;-74
2021/05/09 01:22:14;;;;;;;8.60;6.60;;;;;;;;;;5059621;28;20327;-74
2021/05/09 01:24:41;;;;;;;9.47;6.57;;;;;;;;;;5071103;28;20232;-74
2021/05/09 01:27:08;;;;;;;10.23;7.07;;;;;;;;;;5069310;28;20416;-74
2021/05/09 01:29:35;;;;;;;8.00;6.43;;;;;;;;;;5066363;28;20199;-74
2021/05/09 01:32:03;;;;;;;9.10;6.57;;;;;;;;;;5070299;28;20199;-74
2021/05/09 01:34:34;;;;;;;8.93;6.67;;;;;;;;;;5071150;28;20234;-74
2021/05/09 01:37:01;;;;;;;9.77;7.03;;;;;;;;;;5054612;28;20209;-74
2021/05/09 01:39:29;;;;;;;9.63;6.77;;;;;;;;;;5051363;28;20200;-74
2021/05/09 01:41:56;;;;;;;8.17;6.30;;;;;;;;;;5064056;28;20285;-75
2021/05/09 01:44:23;;;;;;;9.47;7.00;;;;;;;;;;5070617;28;20203;-74
2021/05/09 01:46:50;;;;;;;10.37;7.30;;;;;;;;;;5051169;28;20211;-74
2021/05/09 01:49:16;;;;;;;7.70;6.10;;;;;;;;;;5051055;28;20638;-74
2021/05/09 01:51:43;;;;;;;7.83;6.07;;;;;;;;;;5055508;28;20242;-74
2021/05/09 01:54:10;;;;;;;6.50;5.80;;;;;;;;;;5054958;28;20200;-74
2021/05/09 01:56:37;;;;;;;8.23;6.03;;;;;;;;;;5054570;28;20259;-74
2021/05/09 01:59:04;;;;;;;7.90;5.83;;;;;;;;;;5055116;28;20304;-74
2021/05/09 02:01:31;;;;;;;7.27;6.03;;;;;;;;;;5068532;28;20262;-74
2021/05/09 02:03:58;;;;;;;12.23;6.63;;;;;;;;;;5055831;28;20335;-74
2021/05/09 02:06:24;;;;;;;7.70;6.47;;;;;;;;;;5064943;28;20202;-74
2021/05/09 02:08:51;;;;;;;10.47;7.00;;;;;;;;;;5075067;28;20203;-74
2021/05/09 02:11:18;;;;;;;8.17;5.93;;;;;;;;;;5075922;28;21590;-74
2021/05/09 02:13:45;;;;;;;8.40;6.50;;;;;;;;;;5055608;28;20231;-74
2021/05/09 02:16:12;;;;;;;9.40;6.80;;;;;;;;;;5053981;28;20318;-74
2021/05/09 02:18:39;;;;;;;7.10;6.13;;;;;;;;;;5055122;28;20210;-75
2021/05/09 02:21:06;;;;;;;8.27;6.40;;;;;;;;;;5054384;28;20208;-74
2021/05/09 02:23:32;;;;;;;8.70;6.43;;;;;;;;;;5054500;28;20291;-75
2021/05/09 02:25:59;;;;;;;8.57;6.53;;;;;;;;;;5054159;28;20310;-74
2021/05/09 02:28:26;;;;;;;7.30;6.40;;;;;;;;;;5069383;28;20213;-75
2021/05/09 02:30:54;;;;;;;7.07;6.17;;;;;;;;;;5080985;28;20430;-74
2021/05/09 02:33:20;;;;;;;9.00;6.57;;;;;;;;;;5079496;28;20234;-75
2021/05/09 02:35:47;;;;;;;8.43;6.67;;;;;;;;;;5088309;28;20301;-74
2021/05/09 02:38:14;;;;;;;7.97;6.57;;;;;;;;;;5085816;28;20674;-74
2021/05/09 02:40:40;;;;;;;9.30;6.67;;;;;;;;;;5074091;28;20293;-74
2021/05/09 02:43:07;;;;;;;9.27;7.40;;;;;;;;;;5080078;28;20287;-75
2021/05/09 02:45:34;;;;;;;10.03;6.50;;;;;;;;;;5094282;28;20195;-74
2021/05/09 02:48:02;;;;;;;9.53;7.23;;;;;;;;;;5094437;28;20241;-75
2021/05/09 02:50:28;;;;;;;9.87;7.03;;;;;;;;;;5094218;28;20290;-75
2021/05/09 02:52:55;;;;;;;8.93;6.90;;;;;;;;;;5094483;28;20202;-75
2021/05/09 02:55:22;;;;;;;9.60;6.90;;;;;;;;;;5093580;28;20264;-75
2021/05/09 02:57:48;;;;;;;9.77;7.43;;;;;;;;;;5094014;28;20233;-74
2021/05/09 03:00:15;;;;;;;10.20;7.87;;;;;;;;;;5093963;28;20324;-74
2021/05/09 03:02:42;;;;;;;9.90;7.17;;;;;;;;;;5092742;28;20284;-75
2021/05/09 03:05:10;;;;;;;8.90;6.53;;;;;;;;;;5094186;28;20198;-74
2021/05/09 03:07:37;;;;;;;7.87;6.37;;;;;;;;;;5093942;28;20423;-74
2021/05/09 03:10:04;;;;;;;9.90;6.80;;;;;;;;;;5093471;28;20202;-74
2021/05/09 03:12:31;;;;;;;8.83;6.63;;;;;;;;;;5074503;28;20534;-74
2021/05/09 03:14:58;;;;;;;7.67;6.40;;;;;;;;;;5089876;28;20305;-74
2021/05/09 03:17:24;;;;;;;8.33;6.50;;;;;;;;;;5086358;28;20762;-74
2021/05/09 03:19:51;;;;;;;8.00;6.53;;;;;;;;;;5080667;28;20202;-74
2021/05/09 03:22:19;;;;;;;8.23;6.47;;;;;;;;;;5073455;28;20766;-74
2021/05/09 03:24:45;;;;;;;9.43;6.40;;;;;;;;;;5075429;28;20198;-74
2021/05/09 03:27:12;;;;;;;8.87;6.83;;;;;;;;;;5074754;28;20251;-74
2021/05/09 03:29:39;;;;;;;8.97;6.80;;;;;;;;;;5073241;28;20670;-74
2021/05/09 03:32:06;;;;;;;8.97;6.60;;;;;;;;;;5070071;28;20195;-74
2021/05/09 03:34:32;;;;;;;7.87;6.13;;;;;;;;;;5053244;28;20572;-74
2021/05/09 03:37:01;;;;;;;7.07;6.17;;;;;;;;;;5053240;28;20223;-74
2021/05/09 03:39:29;;;;;;;9.60;6.40;;;;;;;;;;5053098;28;20238;-74
2021/05/09 03:41:55;;;;;;;7.87;6.27;;;;;;;;;;5064910;28;20256;-74
2021/05/09 03:44:22;;;;;;;8.20;6.50;;;;;;;;;;5072944;28;20347;-74
2021/05/09 03:46:49;;;;;;;7.83;6.63;;;;;;;;;;5087294;28;20738;-74
2021/05/09 03:49:15;;;;;;;8.83;6.50;;;;;;;;;;5079759;28;20294;-74
2021/05/09 03:51:42;;;;;;;7.60;6.80;;;;;;;;;;5073022;28;20226;-74
2021/05/09 03:54:09;;;;;;;7.13;6.43;;;;;;;;;;5086543;28;20230;-74
2021/05/09 03:56:37;;;;;;;9.20;6.57;;;;;;;;;;5072600;28;20654;-74
2021/05/09 03:59:04;;;;;;;9.50;6.73;;;;;;;;;;5072415;28;20203;-74
2021/05/09 04:01:30;;;;;;;10.20;6.93;;;;;;;;;;5072639;28;20313;-74
2021/05/09 04:03:57;;;;;;;7.53;6.67;;;;;;;;;;5072349;28;20231;-74
2021/05/09 04:06:24;;;;;;;10.27;7.20;;;;;;;;;;5059523;28;20287;-74
2021/05/09 04:08:50;;;;;;;8.77;6.93;;;;;;;;;;5052278;28;20215;-74
2021/05/09 04:11:18;;;;;;;7.57;6.70;;;;;;;;;;5057949;28;20242;-74
2021/05/09 04:13:46;;;;;;;8.83;6.40;;;;;;;;;;5056318;28;20204;-74
2021/05/09 04:16:13;;;;;;;9.13;6.30;;;;;;;;;;5056084;28;20248;-74
2021/05/09 04:18:39;;;;;;;6.90;6.10;;;;;;;;;;5091417;28;20202;-74
2021/05/09 04:21:06;;;;;;;8.53;6.30;;;;;;;;;;5062727;28;20207;-74
2021/05/09 04:23:33;;;;;;;9.03;6.10;;;;;;;;;;5056619;28;20574;-74
2021/05/09 04:25:59;;;;;;;7.23;6.23;;;;;;;;;;5071819;28;20718;-74
2021/05/09 04:28:26;;;;;;;9.07;6.73;;;;;;;;;;5071946;28;20227;-74
2021/05/09 04:30:54;;;;;;;9.00;6.93;;;;;;;;;;5072089;28;20238;-74
2021/05/09 04:33:25;;;;;;;8.93;6.70;;;;;;;;;;5069935;28;20292;-74
2021/05/09 04:35:52;;;;;;;9.37;7.10;;;;;;;;;;5075411;28;20247;-74
2021/05/09 04:38:19;;;;;;;9.57;6.80;;;;;;;;;;5091283;28;20210;-75
2021/05/09 04:40:46;;;;;;;9.03;6.83;;;;;;;;;;5071232;28;20874;-74
2021/05/09 04:43:13;;;;;;;7.30;6.47;;;;;;;;;;5071575;28;20899;-74
2021/05/09 04:45:40;;;;;;;9.10;7.10;;;;;;;;;;5066842;28;20228;-74
2021/05/09 04:48:08;;;;;;;8.60;6.40;;;;;;;;;;5051994;28;20286;-74
2021/05/09 04:50:34;;;;;;;8.80;6.90;;;;;;;;;;5064417;28;20203;-74
2021/05/09 04:53:01;;;;;;;7.63;6.83;;;;;;;;;;5051975;28;20287;-74
2021/05/09 04:55:28;;;;;;;9.23;7.20;;;;;;;;;;5060334;28;20264;-74
2021/05/09 04:57:55;;;;;;;8.83;6.70;;;;;;;;;;5074425;28;20288;-74
2021/05/09 05:00:22;;;;;;;9.00;7.13;;;;;;;;;;5054710;28;20271;-74
2021/05/09 05:02:49;;;;;;;8.47;6.47;;;;;;;;;;5057210;28;20259;-75
2021/05/09 05:05:16;;;;;;;8.50;6.37;;;;;;;;;;5051171;28;20203;-74
2021/05/09 05:07:43;;;;;;;8.40;6.53;;;;;;;;;;5051551;28;20233;-74
2021/05/09 05:10:10;;;;;;;10.50;7.13;;;;;;;;;;5051462;28;20250;-74
2021/05/09 05:12:37;;;;;;;7.90;6.50;;;;;;;;;;5059622;28;20286;-74
2021/05/09 05:15:04;;;;;;;6.97;6.17;;;;;;;;;;5070977;28;20259;-74
2021/05/09 05:17:30;;;;;;;7.30;6.37;;;;;;;;;;5052615;28;20210;-74
2021/05/09 05:19:57;;;;;;;8.60;6.33;;;;;;;;;;5058437;28;20286;-74
2021/05/09 05:22:25;;;;;;;8.40;6.80;;;;;;;;;;5091132;28;20260;-74
2021/05/09 05:24:51;;;;;;;8.57;7.00;;;;;;;;;;5091228;28;20223;-74
2021/05/09 05:27:18;;;;;;;9.23;6.33;;;;;;;;;;5091291;28;20261;-74
2021/05/09 05:29:45;;;;;;;10.23;6.50;;;;;;;;;;5078298;28;20288;-74
2021/05/09 05:32:11;;;;;;;10.27;6.67;;;;;;;;;;5059847;28;20344;-74
2021/05/09 05:34:38;;;;;;;12.20;6.30;;;;;;;;;;5070550;28;20205;-74
2021/05/09 05:37:05;;;;;;;6.10;5.50;;;;;;;;;;5071092;28;20230;-74
2021/05/09 05:39:32;;;;;;;8.63;6.53;;;;;;;;;;5070884;28;20228;-74
2021/05/09 05:42:00;;;;;;;8.60;6.50;;;;;;;;;;5071285;28;20206;-74
2021/05/09 05:44:27;;;;;;;6.83;5.43;;;;;;;;;;5071073;28;20244;-74
2021/05/09 05:46:54;;;;;;;12.33;5.80;;;;;;;;;;5071457;28;20282;-74
2021/05/09 05:49:21;;;;;;;12.17;5.93;;;;;;;;;;5070841;28;20198;-74
2021/05/09 05:51:48;;;;;;;9.27;5.70;;;;;;;;;;5079206;28;20600;-74
2021/05/09 05:54:15;;;;;;;9.57;5.70;;;;;;;;;;5071872;28;20206;-74
2021/05/09 05:56:42;;;;;;;8.93;5.43;;;;;;;;;;5070843;28;20226;-74
2021/05/09 05:59:09;;;;;;;8.93;5.80;;;;;;;;;;5071099;28;20845;-74
2021/05/09 06:01:36;;;;;;;10.23;5.67;;;;;;;;;;5070977;28;20265;-74
2021/05/09 06:04:02;;;;;;;6.70;5.40;;;;;;;;;;5058922;28;20286;-74
2021/05/09 06:06:29;;;;;;;8.97;5.67;;;;;;;;;;5050901;28;20199;-74
2021/05/09 06:08:56;;;;;;;7.17;5.60;;;;;;;;;;5051039;28;20287;-74
2021/05/09 06:11:23;;;;;;;7.17;5.63;;;;;;;;;;5058137;28;20284;-74
2021/05/09 06:13:51;;;;;;;9.10;5.30;;;;;;;;;;5070535;28;20593;-74
2021/05/09 06:16:17;;;;;;;6.77;5.50;;;;;;;;;;5070941;28;20785;-74
2021/05/09 06:18:44;;;;;;;10.57;5.73;;;;;;;;;;5070634;28;20199;-74
2021/05/09 06:21:11;;;;;;;6.43;5.20;;;;;;;;;;5070895;28;20260;-74
2021/05/09 06:23:38;;;;;;;9.00;4.90;;;;;;;;;;5058607;28;20231;-74
2021/05/09 06:26:04;;;;;;;8.33;5.53;;;;;;;;;;5056083;28;20614;-74
2021/05/09 06:28:31;;;;;;;7.90;5.47;;;;;;;;;;5070728;28;20667;-75
2021/05/09 06:30:59;;;;;;;7.17;4.63;;;;;;;;;;5070207;28;20207;-74
2021/05/09 06:33:25;;;;;;;7.87;4.43;;;;;;;;;;5064011;28;20659;-74
2021/05/09 06:35:53;;;;;;;7.77;4.50;;;;;;;;;;5050523;28;20223;-75
2021/05/09 06:38:20;;;;;;;5.80;4.40;;;;;;;;;;5053786;28;20261;-74
2021/05/09 06:40:47;;;;;;;6.10;3.67;;;;;;;;;;5054250;28;20210;-74
2021/05/09 06:43:13;;;;;;;6.03;3.50;;;;;;;;;;5054372;28;20220;-75
2021/05/09 06:45:40;;;;;;;3.73;3.13;;;;;;;;;;5054459;28;20617;-75
2021/05/09 06:48:10;;;;;;;5.03;3.07;;;;;;;;;;5053769;28;20203;-75
2021/05/09 06:50:36;;;;;;;3.03;2.40;;;;;;;;;;5054065;28;20200;-74
2021/05/09 06:53:03;;;;;;;4.17;2.40;;;;;;;;;;5072551;28;20282;-74
2021/05/09 06:55:30;;;;;;;4.80;2.33;;;;;;;;;;5073693;28;20257;-74
2021/05/09 06:57:57;;;;;;;3.00;2.30;;;;;;;;;;5074123;28;20282;-74
2021/05/09 07:00:24;;;;;;;4.63;2.50;;;;;;;;;;5073951;28;20270;-75
2021/05/09 07:02:51;;;;;;;3.67;1.93;;;;;;;;;;5073476;28;20246;-75
2021/05/09 07:05:19;;;;;;;3.20;2.08;;;;;;;;;;5073635;28;20199;-74
2021/05/09 07:07:52;;;;;;;2.25;2.00;;;;;;;;;;5073005;28;20272;-75
2021/05/09 07:10:22;;;;;;;3.97;2.30;;;;;;;;;;5063830;28;20609;-75
2021/05/09 07:12:49;;;;;;;3.58;2.13;;;;;;;;;;5073425;28;20306;-75
2021/05/09 07:15:17;;;;;;;4.55;2.30;;;;;;;;;;5069732;28;20194;-76
2021/05/09 07:17:53;;;;;;;3.60;2.07;;;;;;;;;;5069199;28;20367;-75
2021/05/09 07:20:21;;;;;;;2.93;1.67;;;;;;;;;;5071314;28;20278;-75
2021/05/09 07:22:53;;;;;;;2.30;1.60;;;;;;;;;;5071275;28;20203;-76
2021/05/09 07:25:19;;;;;;;3.70;1.90;;;;;;;;;;5062740;28;20258;-75
2021/05/09 07:27:46;;;;;;;4.53;2.00;;;;;;;;;;5069106;28;20546;-75
2021/05/09 07:30:13;;;;;;;5.90;1.97;;;;;;;;;;5072269;28;20227;-75
2021/05/09 07:32:40;;;;;;;4.17;1.50;;;;;;;;;;5071411;28;20379;-76
2021/05/09 07:35:07;;;;;;;4.93;1.70;;;;;;;;;;5071489;28;20238;-76
2021/05/09 07:37:35;;;;;;;4.33;1.87;;;;;;;;;;5065554;28;20286;-75
2021/05/09 07:40:02;;;;;;;2.47;1.97;;;;;;;;;;5099593;28;20282;-75
2021/05/09 07:42:28;;;;;;;2.33;1.80;;;;;;;;;;5071308;28;20199;-76
2021/05/09 07:44:59;;;;;;;3.57;1.60;;;;;;;;;;5070811;28;20210;-76
2021/05/09 07:47:26;;;;;;;4.17;1.97;;;;;;;;;;5067558;28;20199;-75
2021/05/09 07:49:53;;;;;;;4.03;2.00;;;;;;;;;;5069390;28;20195;-74
2021/05/09 07:52:19;;;;;;;3.83;2.00;;;;;;;;;;5073247;28;20282;-75
2021/05/09 07:54:47;;;;;;;2.23;1.70;;;;;;;;;;5068388;28;20843;-75
2021/05/09 07:57:14;;;;;;;4.97;2.07;;;;;;;;;;5071058;28;20233;-74
2021/05/09 07:59:41;;;;;;;3.57;1.90;;;;;;;;;;5067309;28;20223;-75
2021/05/09 08:02:08;;;;;;;4.57;2.17;;;;;;;;;;5069012;28;20195;-74
2021/05/09 08:04:35;;;;;;;4.43;1.97;;;;;;;;;;5065606;28;20238;-74
2021/05/09 08:07:01;;;;;;;3.93;2.10;;;;;;;;;;5065144;28;20282;-75
2021/05/09 08:09:28;;;;;;;4.30;2.43;;;;;;;;;;5058181;28;20617;-76
2021/05/09 08:11:56;;;;;;;4.13;2.00;;;;;;;;;;5053374;28;20208;-74
2021/05/09 08:14:22;;;;;;;3.83;2.17;;;;;;;;;;5067361;28;20595;-75
2021/05/09 08:16:49;;;;;;;4.77;1.90;;;;;;;;;;5070943;28;20609;-75
2021/05/09 08:19:16;;;;;;;3.40;2.30;;;;;;;;;;5057339;28;20200;-76
2021/05/09 08:21:42;;;;;;;2.90;1.80;;;;;;;;;;5065182;28;20235;-75
2021/05/09 08:24:09;;;;;;;2.87;1.90;;;;;;;;;;5070749;28;20294;-76
2021/05/09 08:26:36;;;;;;;3.23;1.90;;;;;;;;;;5070876;28;20257;-76
2021/05/09 08:29:03;;;;;;;3.47;2.17;;;;;;;;;;5068086;28;20727;-76
2021/05/09 08:31:30;;;;;;;3.67;1.90;;;;;;;;;;5068478;28;20264;-75
2021/05/09 08:33:57;;;;;;;3.37;1.80;;;;;;;;;;5069146;28;20278;-74
2021/05/09 08:36:24;;;;;;;3.57;2.00;;;;;;;;;;5065836;28;20329;-75
2021/05/09 08:38:51;;;;;;;4.73;1.73;;;;;;;;;;5065702;28;20202;-74
2021/05/09 08:41:18;;;;;;;2.57;1.80;;;;;;;;;;5069124;28;20205;-74
2021/05/09 08:43:45;;;;;;;4.03;1.80;;;;;;;;;;5066735;28;20745;-74
2021/05/09 08:46:13;;;;;;;3.90;2.00;;;;;;;;;;5066036;28;20191;-74
2021/05/09 08:48:40;;;;;;;4.70;1.90;;;;;;;;;;5067016;28;20286;-74
2021/05/09 08:51:07;;;;;;;2.43;1.93;;;;;;;;;;5072299;28;20392;-74
2021/05/09 08:53:34;;;;;;;4.27;2.20;;;;;;;;;;5063946;28;20749;-75
2021/05/09 08:56:01;;;;;;;3.93;1.80;;;;;;;;;;5066457;28;20371;-75
2021/05/09 08:58:27;;;;;;;4.17;1.80;;;;;;;;;;5064749;28;20204;-75
2021/05/09 09:00:54;;;;;;;4.70;2.03;;;;;;;;;;5067103;28;20309;-76
2021/05/09 09:03:22;;;;;;;4.97;2.03;;;;;;;;;;5065813;28;20282;-75
2021/05/09 09:05:51;;;;;;;3.73;2.20;;;;;;;;;;5067731;28;20340;-75
2021/05/09 09:08:18;;;;;;;4.20;2.10;;;;;;;;;;5067932;28;20198;-75
2021/05/09 09:10:46;;;;;;;4.00;2.03;;;;;;;;;;5065474;28;20226;-75
2021/05/09 09:13:22;;;;;;;2.97;1.93;;;;;;;;;;5068226;28;20373;-74
2021/05/09 09:15:50;;;;;;;3.87;2.07;;;;;;;;;;5065355;28;20211;-74
2021/05/09 09:18:31;;;;;;;3.70;2.10;;;;;;;;;;5064903;28;20272;-75
2021/05/09 09:20:58;;;;;;;4.17;1.97;;;;;;;;;;5062261;28;20281;-75
2021/05/09 09:23:42;;;;;;;6.13;2.03;;;;;;;;;;5063004;28;20195;-75
2021/05/09 09:26:24;;;;;;;5.73;1.73;;;;;;;;;;5063327;28;20345;-76
2021/05/09 09:28:51;;;;;;;2.63;1.83;;;;;;;;;;5063528;28;20294;-74
2021/05/09 09:31:17;;;;;;;5.73;2.00;;;;;;;;;;5055357;28;20722;-75
2021/05/09 09:33:51;;;;;;;4.17;2.20;;;;;;;;;;5066786;28;20286;-75
2021/05/09 09:36:20;;;;;;;2.53;1.87;;;;;;;;;;5066826;28;20250;-74
2021/05/09 09:38:49;;;;;;;4.13;1.97;;;;;;;;;;5062228;28;20281;-75
2021/05/09 09:41:17;;;;;;;3.40;2.00;;;;;;;;;;5067774;28;20682;-74
2021/05/09 09:44:00;;;;;;;3.97;2.10;;;;;;;;;;5067642;28;20589;-75
2021/05/09 09:46:31;;;;;;;2.97;1.80;;;;;;;;;;5063963;28;20194;-75
2021/05/09 09:48:59;;;;;;;2.80;1.90;;;;;;;;;;5061336;28;20333;-74
2021/05/09 09:51:26;;;;;;;4.03;1.90;;;;;;;;;;5065894;28;20207;-74
2021/05/09 09:53:53;;;;;;;3.07;2.00;;;;;;;;;;5067986;28;20233;-75
2021/05/09 09:56:21;;;;;;;3.20;2.17;;;;;;;;;;5061960;28;20698;-75
2021/05/09 09:58:52;;;;;;;2.23;1.70;;;;;;;;;;5067908;28;20199;-75
2021/05/09 10:01:21;;;;;;;2.27;1.80;;;;;;;;;;5059435;28;20317;-74
2021/05/09 10:03:48;;;;;;;3.27;2.00;;;;;;;;;;5057950;28;20208;-74
2021/05/09 10:06:16;;;;;;;2.97;1.87;;;;;;;;;;5060887;28;20278;-75
2021/05/09 10:08:43;;;;;;;3.80;1.77;;;;;;;;;;5063408;28;20241;-75
2021/05/09 10:11:10;;;;;;;3.15;1.70;;;;;;;;;;5059756;28;20250;-74
2021/05/09 10:13:37;;;;;;;3.13;1.80;;;;;;;;;;5058281;28;20199;-75
2021/05/09 10:16:05;;;;;;;2.50;1.80;;;;;;;;;;5055866;28;20230;-75
2021/05/09 10:18:32;;;;;;;3.13;1.83;;;;;;;;;;5060168;28;20226;-76
2021/05/09 10:20:59;;;;;;;4.45;1.70;;;;;;;;;;5058069;28;20199;-75
2021/05/09 10:23:30;;;;;;;3.30;2.10;;;;;;;;;;5058334;28;20721;-75
2021/05/09 10:25:57;;;;;;;3.63;1.98;;;;;;;;;;5065788;28;20302;-74
2021/05/09 10:28:25;;;;;;;3.60;2.00;;;;;;;;;;5058807;28;20253;-75
2021/05/09 10:30:52;;;;;;;2.92;1.58;;;;;;;;;;5065167;28;20312;-75
2021/05/09 10:33:38;;;;;;;3.90;1.60;;;;;;;;;;5083272;28;20237;-75
2021/05/09 10:36:05;;;;;;;1.98;1.40;;;;;;;;;;5069799;28;20636;-75
2021/05/09 10:38:53;;;;;;;8.65;6.75;;;;;;;;;;5066056;28;20234;-74
2021/05/09 10:41:19;;;;;;;5.53;2.40;;;;;;;;;;5069457;28;20278;-74
2021/05/09 10:43:46;;;;;;;5.70;2.45;;;;;;;;;;5060659;28;20290;-75
2021/05/09 10:46:13;;;;;;;2.95;1.80;;;;;;;;;;5062075;28;20223;-74
2021/05/09 10:48:40;;;;;;;4.05;1.50;;;;;;;;;;5061976;28;20294;-75
2021/05/09 10:51:27;;;;;;;5.28;1.70;;;;;;;;;;5067601;28;20294;-74
2021/05/09 10:54:18;;;;;;;3.40;1.38;;;;;;;;;;5066581;28;20203;-74
2021/05/09 10:56:45;;;;;;;7.90;4.18;;;;;;;;;;5054481;28;20235;-75
2021/05/09 10:59:11;;;;;;;3.00;1.80;;;;;;;;;;5073028;28;20577;-75
2021/05/09 11:01:38;;;;;;;4.50;2.70;;;;;;;;;;5069394;28;20314;-75
2021/05/09 11:04:06;;;;;;;4.28;1.42;;;;;;;;;;5059115;28;20297;-75
2021/05/09 11:06:38;;;;;;;3.33;1.67;;;;;;;;;;5060844;28;20238;-75
2021/05/09 11:09:12;;;;;;;2.63;1.60;;;;;;;;;;5066552;28;20731;-75
2021/05/09 11:12:15;;;;;;;2.65;1.73;;;;;;;;;;5070910;28;20261;-75
2021/05/09 11:14:42;;;;;;;3.70;2.00;;;;;;;;;;5061073;28;20207;-75
2021/05/09 11:17:17;;;;;;;2.25;1.20;;;;;;;;;;5073932;28;20242;-75
2021/05/09 11:19:51;;;;;;;2.38;1.23;;;;;;;;;;5058661;28;20635;-75
2021/05/09 11:22:19;;;;;;;3.28;1.58;;;;;;;;;;5062680;28;20285;-75
2021/05/09 11:24:53;;;;;;;3.58;1.98;;;;;;;;;;5064336;28;20734;-75
2021/05/09 11:27:20;;;;;;;3.00;1.58;;;;;;;;;;5054969;28;20298;-75
2021/05/09 11:29:48;;;;;;;2.95;1.27;;;;;;;;;;5055628;28;20235;-75
2021/05/09 11:32:16;;;;;;;2.38;1.60;;;;;;;;;;5064548;28;20195;-76
2021/05/09 11:34:49;;;;;;;9.20;2.28;;;;;;;;;;5069761;28;20281;-76
2021/05/09 11:37:16;;;;;;;2.88;1.60;;;;;;;;;;5068352;28;20310;-75
2021/05/09 11:39:43;;;;;;;2.03;1.30;;;;;;;;;;5075883;28;20199;-76
2021/05/09 11:42:12;;;;;;;3.53;1.70;;;;;;;;;;5061450;28;20210;-75
2021/05/09 11:44:43;;;;;;;3.67;1.70;;;;;;;;;;5060854;28;20211;-75
2021/05/09 11:47:11;;;;;;;2.95;1.40;;;;;;;;;;5060790;28;20524;-75
2021/05/09 11:49:38;;;;;;;2.45;1.50;;;;;;;;;;5070992;28;20230;-76
2021/05/09 11:52:06;;;;;;;2.63;1.35;;;;;;;;;;5059512;28;20202;-75
2021/05/09 11:54:34;;;;;;;5.60;1.75;;;;;;;;;;5070485;28;20277;-76
2021/05/09 11:57:01;;;;;;;2.95;1.63;;;;;;;;;;5060171;28;20338;-75
2021/05/09 11:59:29;;;;;;;4.00;1.80;;;;;;;;;;5056372;28;20593;-75
2021/05/09 12:01:56;;;;;;;3.95;1.75;;;;;;;;;;5063421;28;20289;-76
2021/05/09 12:04:28;;;;;;;3.10;1.42;;;;;;;;;;5057656;28;20239;-75
2021/05/09 12:06:55;;;;;;;6.65;2.30;;;;;;;;;;5060615;28;20678;-75
2021/05/09 12:09:22;;;;;;;2.83;1.67;;;;;;;;;;5058533;28;20862;-75
2021/05/09 12:11:49;;;;;;;2.83;1.63;;;;;;;;;;5068949;28;20286;-75
2021/05/09 12:14:16;;;;;;;4.47;2.03;;;;;;;;;;5067491;28;20235;-76
2021/05/09 12:16:44;;;;;;;4.65;1.90;;;;;;;;;;5071457;28;20251;-75
2021/05/09 12:19:10;;;;;;;3.60;2.50;;;;;;;;;;5070302;28;20235;-76
2021/05/09 12:21:37;;;;;;;4.85;2.20;;;;;;;;;;5063894;28;20234;-75
2021/05/09 12:24:04;;;;;;;3.70;2.28;;;;;;;;;;5063400;28;20820;-76
2021/05/09 12:26:31;;;;;;;3.08;1.73;;;;;;;;;;5065479;28;20793;-75
2021/05/09 12:29:16;;;;;;;4.53;2.15;;;;;;;;;;5070149;28;20261;-75
2021/05/09 12:31:43;;;;;;;4.53;2.08;;;;;;;;;;5064663;28;20227;-75
2021/05/09 12:34:10;;;;;;;3.92;2.30;;;;;;;;;;5068212;28;20199;-76
2021/05/09 12:36:39;;;;;;;3.95;2.08;;;;;;;;;;5059149;28;20325;-75
2021/05/09 12:39:18;;;;;;;2.60;1.85;;;;;;;;;;5070317;28;20218;-75
2021/05/09 12:41:52;;;;;;;3.20;1.83;;;;;;;;;;5069935;28;21687;-75
2021/05/09 12:44:21;;;;;;;2.95;1.73;;;;;;;;;;5060996;28;20732;-75
2021/05/09 12:46:49;;;;;;;5.50;2.30;;;;;;;;;;5061881;28;20195;-75
2021/05/09 12:49:16;;;;;;;4.63;2.45;;;;;;;;;;5057439;28;20333;-75
2021/05/09 12:51:50;;;;;;;4.35;2.30;;;;;;;;;;5054041;28;20249;-75
2021/05/09 12:54:33;;;;;;;2.78;2.00;;;;;;;;;;5067844;28;20197;-76
2021/05/09 12:57:20;;;;;;;3.15;2.03;;;;;;;;;;5055278;28;20253;-77
2021/05/09 12:59:47;;;;;;;5.93;2.30;;;;;;;;;;5071886;28;20222;-75
2021/05/09 13:02:15;;;;;;;3.00;2.28;;;;;;;;;;5077816;28;20627;-76
2021/05/09 13:04:45;;;;;;;3.42;2.60;;;;;;;;;;5067677;28;20214;-76
2021/05/09 13:07:14;;;;;;;7.22;3.00;;;;;;;;;;5072776;28;20195;-75
2021/05/09 13:09:43;;;;;;;4.25;2.88;;;;;;;;;;5070083;28;20203;-75
2021/05/09 13:12:10;;;;;;;4.90;2.63;;;;;;;;;;5062261;28;20626;-75
2021/05/09 13:14:41;;;;;;;5.20;2.67;;;;;;;;;;5068647;28;20231;-76
2021/05/09 13:17:07;;;;;;;4.03;2.80;;;;;;;;;;5065555;28;20272;-74
2021/05/09 13:19:36;;;;;;;5.90;3.20;;;;;;;;;;5062083;28;20294;-74
2021/05/09 13:22:03;;;;;;;4.72;3.08;;;;;;;;;;5050475;28;20236;-75
2021/05/09 13:24:29;;;;;;;4.72;3.30;;;;;;;;;;5065702;28;20604;-75
2021/05/09 13:26:56;;;;;;;7.60;3.40;;;;;;;;;;5070417;28;20215;-76
2021/05/09 13:29:23;;;;;;;5.20;3.45;;;;;;;;;;5066842;28;20195;-75
2021/05/09 13:31:49;;;;;;;3.92;3.35;;;;;;;;;;5072023;28;20286;-74
2021/05/09 13:34:16;;;;;;;4.53;3.10;;;;;;;;;;5065379;28;20289;-73
2021/05/09 13:36:44;;;;;;;6.82;3.55;;;;;;;;;;5071213;28;20667;-74
2021/05/09 13:39:11;;;;;;;3.72;3.40;;;;;;;;;;5069741;28;20203;-76
2021/05/09 13:41:38;;;;;;;6.85;3.58;;;;;;;;;;5068380;28;20195;-76
2021/05/09 13:44:05;;;;;;;3.83;3.40;;;;;;;;;;5065579;28;20709;-76
2021/05/09 13:46:31;;;;;;;4.65;3.40;;;;;;;;;;5069406;28;20187;-76
2021/05/09 13:48:59;;;;;;;4.65;3.28;;;;;;;;;;5070680;28;20195;-75
2021/05/09 13:51:26;;;;;;;4.97;3.63;;;;;;;;;;5073515;28;20213;-75
2021/05/09 13:53:53;;;;;;;6.18;3.80;;;;;;;;;;5061173;28;20579;-75
2021/05/09 13:56:20;;;;;;;4.28;3.33;;;;;;;;;;5067898;28;20212;-76
2021/05/09 13:58:50;;;;;;;6.68;3.53;;;;;;;;;;5054263;28;20397;-75
2021/05/09 14:01:16;;;;;;;7.40;4.07;;;;;;;;;;5065981;28;20314;-75
2021/05/09 14:03:43;;;;;;;4.05;3.60;;;;;;;;;;5072697;28;20242;-75
2021/05/09 14:06:10;;;;;;;5.43;4.00;;;;;;;;;;5062257;28;20207;-74
2021/05/09 14:08:37;;;;;;;9.52;3.90;;;;;;;;;;5072788;28;20301;-75
2021/05/09 14:11:04;;;;;;;6.18;4.10;;;;;;;;;;5063236;28;20306;-74
2021/05/09 14:13:31;;;;;;;5.22;3.70;;;;;;;;;;5061739;28;20290;-75
2021/05/09 14:15:58;;;;;;;5.63;3.90;;;;;;;;;;5056242;28;20203;-75
2021/05/09 14:18:25;;;;;;;5.20;3.90;;;;;;;;;;5072274;28;20203;-75
2021/05/09 14:20:52;;;;;;;7.35;4.28;;;;;;;;;;5071421;28;20298;-75
2021/05/09 14:23:19;;;;;;;5.20;3.60;;;;;;;;;;5074482;28;20662;-75
2021/05/09 14:25:45;;;;;;;7.10;4.00;;;;;;;;;;5069872;28;20238;-75
2021/05/09 14:28:13;;;;;;;11.50;4.18;;;;;;;;;;5065249;28;20679;-74
2021/05/09 14:30:40;;;;;;;5.38;3.85;;;;;;;;;;5066874;28;20659;-75
2021/05/09 14:33:07;;;;;;;7.57;4.22;;;;;;;;;;5065800;28;20226;-74
2021/05/09 14:35:34;;;;;;;8.93;4.47;;;;;;;;;;5069861;28;20706;-74
2021/05/09 14:38:01;;;;;;;6.57;4.93;;;;;;;;;;5072066;28;20307;-74
2021/05/09 14:40:28;;;;;;;8.48;4.38;;;;;;;;;;5069333;28;20198;-75
2021/05/09 14:42:55;;;;;;;4.15;3.75;;;;;;;;;;5056730;28;20305;-74
2021/05/09 14:45:22;;;;;;;6.10;4.43;;;;;;;;;;5062165;28;20294;-74
2021/05/09 14:47:49;;;;;;;6.25;4.38;;;;;;;;;;5073000;28;20305;-74